Time;durP1;ratioP1;P1;durP2;ratioP2;P2;SDS_P1;SDS_P2;PMS_P1;PMS_P2;Temp;Humidity;BMP_temperature;BMP_pressure;BME280_temperature;BME280_humidity;BME280_pressure;Samples;Min_cycle;Max_cycle;Signal;HPM_P1;HPM_P2
2022/03/19 00:00:26;;;;;;;6.45;2.83;;;5.40;99.90;;;;;;5034822;28;20051;-60
2022/03/19 00:02:52;;;;;;;11.77;4.00;;;5.30;99.90;;;;;;5046472;28;20052;-61
2022/03/19 00:05:18;;;;;;;8.65;3.10;;;5.30;99.90;;;;;;5036389;28;20052;-62
2022/03/19 00:07:44;;;;;;;6.60;3.35;;;5.20;99.90;;;;;;5035370;28;20037;-61
2022/03/19 00:10:15;;;;;;;9.27;3.92;;;5.20;99.90;;;;;;5041860;28;21419;-60
2022/03/19 00:12:44;;;;;;;8.45;3.40;;;5.20;99.90;;;;;;5026726;28;20033;-60
2022/03/19 00:15:11;;;;;;;5.80;2.75;;;5.10;99.90;;;;;;5041984;28;20112;-61
2022/03/19 00:17:37;;;;;;;8.18;3.22;;;5.10;99.90;;;;;;5029107;28;20041;-61
2022/03/19 00:20:04;;;;;;;13.23;4.20;;;5.10;99.90;;;;;;5049307;28;20040;-62
2022/03/19 00:22:30;;;;;;;14.50;3.58;;;5.00;99.90;;;;;;5045929;28;20100;-60
2022/03/19 00:24:58;;;;;;;5.55;2.58;;;6.20;99.90;;;;;;5040866;28;20068;-61
2022/03/19 00:27:25;;;;;;;11.00;3.25;;;5.10;99.90;;;;;;5046013;28;20047;-60
2022/03/19 00:29:51;;;;;;;6.22;2.50;;;5.10;99.90;;;;;;5044627;28;20152;-60
2022/03/19 00:32:17;;;;;;;7.32;2.88;;;5.10;99.90;;;;;;5020124;28;20037;-62
2022/03/19 00:34:43;;;;;;;9.23;2.95;;;5.10;99.90;;;;;;5045227;28;20041;-60
2022/03/19 00:37:09;;;;;;;6.78;3.05;;;4.90;99.90;;;;;;5038237;28;20132;-60
2022/03/19 00:39:34;;;;;;;13.55;4.65;;;4.90;99.90;;;;;;5020088;28;20056;-60
2022/03/19 00:42:00;;;;;;;7.30;2.85;;;4.80;99.90;;;;;;5040572;28;21014;-61
2022/03/19 00:44:25;;;;;;;4.68;2.80;;;4.80;99.90;;;;;;5042609;28;20072;-60
2022/03/19 00:46:51;;;;;;;10.00;3.35;;;4.80;99.90;;;;;;5041567;28;20045;-61
2022/03/19 00:49:17;;;;;;;9.93;2.50;;;4.80;99.90;;;;;;5038865;28;20126;-61
2022/03/19 00:51:42;;;;;;;8.88;3.38;;;4.90;99.90;;;;;;5044689;28;20736;-61
2022/03/19 00:54:09;;;;;;;9.13;2.30;;;4.90;99.90;;;;;;5034421;28;20040;-61
2022/03/19 00:56:35;;;;;;;6.82;2.35;;;4.90;99.90;;;;;;5044910;28;20167;-61
2022/03/19 00:59:01;;;;;;;8.00;2.47;;;4.90;99.90;;;;;;5043003;28;20484;-60
2022/03/19 01:01:27;;;;;;;5.82;2.80;;;5.00;99.90;;;;;;5039247;28;20093;-61
2022/03/19 01:03:53;;;;;;;7.50;3.20;;;4.90;99.90;;;;;;5024639;28;20839;-61
2022/03/19 01:06:18;;;;;;;5.32;2.55;;;4.90;99.90;;;;;;5047159;28;20049;-60
2022/03/19 01:08:44;;;;;;;4.97;2.33;;;4.90;99.90;;;;;;5042786;28;20495;-60
2022/03/19 01:11:10;;;;;;;10.43;3.90;;;5.00;99.90;;;;;;5045755;28;20052;-60
2022/03/19 01:13:35;;;;;;;5.20;2.13;;;4.90;99.90;;;;;;5051918;28;20044;-60
2022/03/19 01:16:02;;;;;;;6.45;3.22;;;4.90;99.90;;;;;;5049745;28;20144;-60
2022/03/19 01:18:28;;;;;;;8.90;3.17;;;4.90;99.90;;;;;;5046239;28;20083;-61
2022/03/19 01:20:54;;;;;;;6.78;2.78;;;4.80;99.90;;;;;;5046537;28;20072;-60
2022/03/19 01:23:26;;;;;;;4.90;2.53;;;4.80;99.90;;;;;;5022445;28;20091;-60
2022/03/19 01:25:51;;;;;;;8.27;2.33;;;4.80;99.90;;;;;;5040373;28;20052;-60
2022/03/19 01:28:17;;;;;;;4.75;2.13;;;4.70;99.90;;;;;;5042102;28;20041;-60
2022/03/19 01:30:42;;;;;;;8.15;2.35;;;4.70;99.90;;;;;;5043156;28;20076;-60
2022/03/19 01:33:08;;;;;;;9.95;3.17;;;4.70;99.90;;;;;;5041380;28;20055;-61
2022/03/19 01:35:34;;;;;;;5.40;2.47;;;4.70;99.90;;;;;;5051275;28;20044;-60
2022/03/19 01:37:59;;;;;;;4.15;2.83;;;4.70;99.90;;;;;;5040458;28;20064;-61
2022/03/19 01:40:25;;;;;;;4.47;2.00;;;4.70;99.90;;;;;;5025083;28;20129;-60
2022/03/19 01:42:52;;;;;;;8.60;4.95;;;4.70;99.90;;;;;;5042094;28;20044;-62
2022/03/19 01:45:20;;;;;;;5.22;2.55;;;4.60;99.90;;;;;;5058059;28;20076;-61
2022/03/19 01:47:47;;;;;;;8.07;2.50;;;4.70;99.90;;;;;;5057705;28;20048;-61
2022/03/19 01:50:13;;;;;;;10.65;3.60;;;4.70;99.90;;;;;;5051278;28;20090;-61
2022/03/19 01:52:40;;;;;;;7.35;4.15;;;4.70;99.90;;;;;;5056629;28;20048;-61
2022/03/19 01:55:07;;;;;;;3.25;2.45;;;4.70;99.90;;;;;;5055843;28;20788;-60
2022/03/19 01:57:37;;;;;;;8.75;2.85;;;4.70;99.90;;;;;;5056466;28;20049;-61
2022/03/19 02:00:04;;;;;;;6.70;2.55;;;4.70;99.90;;;;;;5056776;28;20058;-60
2022/03/19 02:02:30;;;;;;;6.65;2.72;;;4.70;99.90;;;;;;5056033;28;20052;-61
2022/03/19 02:04:59;;;;;;;6.28;3.47;;;4.70;99.90;;;;;;5056484;28;20837;-62
2022/03/19 02:07:24;;;;;;;6.15;2.95;;;4.70;99.90;;;;;;5056700;28;20135;-60
2022/03/19 02:09:50;;;;;;;9.45;2.95;;;4.70;99.90;;;;;;5034464;28;20814;-62
2022/03/19 02:12:16;;;;;;;3.05;2.00;;;4.70;99.90;;;;;;5036353;28;20045;-61
2022/03/19 02:14:41;;;;;;;7.68;2.55;;;4.70;99.90;;;;;;5035680;28;20108;-60
2022/03/19 02:17:09;;;;;;;9.93;3.35;;;4.70;99.90;;;;;;5036167;28;20540;-61
2022/03/19 02:19:49;;;;;;;3.08;2.42;;;4.70;99.90;;;;;;5036240;28;20045;-61
2022/03/19 02:22:16;;;;;;;4.40;2.83;;;4.70;99.90;;;;;;5035850;28;20117;-60
2022/03/19 02:27:26;;;;;;;4.25;2.20;;;4.60;99.90;;;;;;5056117;28;20808;-61
2022/03/19 02:29:52;;;;;;;5.00;2.10;;;4.60;99.90;;;;;;5055388;28;20049;-61
2022/03/19 02:32:18;;;;;;;14.60;4.45;;;4.60;99.90;;;;;;5055778;28;20055;-60
2022/03/19 02:34:43;;;;;;;8.27;2.55;;;4.50;99.90;;;;;;5056084;28;20510;-60
2022/03/19 02:37:09;;;;;;;5.60;2.65;;;4.60;99.90;;;;;;5055836;28;20049;-60
2022/03/19 02:39:35;;;;;;;6.20;3.03;;;4.50;99.90;;;;;;5049465;28;20075;-61
2022/03/19 02:42:04;;;;;;;10.48;3.95;;;4.50;99.90;;;;;;5055831;28;20048;-61
2022/03/19 02:44:30;;;;;;;5.82;2.90;;;4.50;99.90;;;;;;5047201;28;20048;-61
2022/03/19 02:46:59;;;;;;;7.78;3.00;;;4.50;99.90;;;;;;5055908;28;20050;-61
2022/03/19 02:49:25;;;;;;;8.77;3.30;;;4.50;99.90;;;;;;5056049;28;20101;-61
2022/03/19 02:51:52;;;;;;;9.57;3.03;;;4.40;99.90;;;;;;5055914;28;20480;-62
2022/03/19 02:54:21;;;;;;;8.63;3.08;;;4.40;99.90;;;;;;5055968;28;20381;-62
2022/03/19 02:56:47;;;;;;;6.05;3.42;;;4.40;99.90;;;;;;5055571;28;20056;-61
2022/03/19 02:59:18;;;;;;;18.50;4.40;;;4.50;99.90;;;;;;5056085;28;20430;-61
2022/03/19 03:01:44;;;;;;;8.25;3.20;;;4.40;99.90;;;;;;5056159;28;20044;-60
2022/03/19 03:04:10;;;;;;;4.60;2.60;;;4.40;99.90;;;;;;5054709;28;20127;-60
2022/03/19 03:06:38;;;;;;;8.02;2.95;;;4.30;99.90;;;;;;5055883;28;20062;-60
2022/03/19 03:09:04;;;;;;;4.35;2.33;;;4.30;99.90;;;;;;5055696;28;20052;-61
2022/03/19 03:11:31;;;;;;;5.68;3.72;;;4.30;99.90;;;;;;5055317;28;20123;-60
2022/03/19 03:13:57;;;;;;;6.93;3.45;;;4.30;99.90;;;;;;5055837;28;20087;-61
2022/03/19 03:16:22;;;;;;;5.90;2.85;;;4.20;99.90;;;;;;5056143;28;20165;-60
2022/03/19 03:18:48;;;;;;;5.30;3.50;;;4.20;99.90;;;;;;5055542;28;20849;-60
2022/03/19 03:21:14;;;;;;;9.25;3.25;;;4.10;99.90;;;;;;5055326;28;20040;-61
2022/03/19 03:23:40;;;;;;;8.70;3.55;;;4.10;99.90;;;;;;5055691;28;20052;-61
2022/03/19 03:26:06;;;;;;;5.38;2.88;;;4.10;99.90;;;;;;5054675;28;20048;-61
2022/03/19 03:28:31;;;;;;;7.38;3.72;;;4.00;99.90;;;;;;5055238;28;20076;-60
2022/03/19 03:30:57;;;;;;;9.00;3.58;;;4.00;99.90;;;;;;5055771;28;20131;-62
2022/03/19 03:33:23;;;;;;;5.90;3.45;;;4.00;99.90;;;;;;5054488;28;20848;-60
2022/03/19 03:35:49;;;;;;;6.90;3.00;;;4.10;99.90;;;;;;5055497;28;20539;-59
2022/03/19 03:38:14;;;;;;;4.75;3.20;;;4.00;99.90;;;;;;5054898;28;20055;-61
2022/03/19 03:40:41;;;;;;;10.75;3.22;;;4.00;99.90;;;;;;5047563;28;20244;-60
2022/03/19 03:43:08;;;;;;;9.20;3.67;;;4.00;99.90;;;;;;5054704;28;20431;-62
2022/03/19 03:45:34;;;;;;;8.07;3.78;;;4.00;99.90;;;;;;5056344;28;20048;-61
2022/03/19 03:48:00;;;;;;;10.52;3.95;;;4.00;99.90;;;;;;5058495;28;20052;-60
2022/03/19 03:50:26;;;;;;;12.63;3.80;;;3.90;99.90;;;;;;5059203;28;20230;-61
2022/03/19 03:52:51;;;;;;;7.78;3.03;;;4.00;99.90;;;;;;5059424;28;20048;-61
2022/03/19 03:55:18;;;;;;;5.18;2.65;;;4.00;99.90;;;;;;5058781;28;20048;-60
2022/03/19 03:57:43;;;;;;;8.32;4.50;;;4.00;99.90;;;;;;5033570;28;20680;-61
2022/03/19 04:00:09;;;;;;;9.27;3.10;;;4.00;99.90;;;;;;5058084;28;20051;-61
2022/03/19 04:02:40;;;;;;;6.30;3.70;;;4.00;99.90;;;;;;5058878;28;20049;-61
2022/03/19 04:05:07;;;;;;;4.43;2.72;;;4.00;99.90;;;;;;5059054;28;20058;-61
2022/03/19 04:07:33;;;;;;;5.53;3.38;;;3.90;99.90;;;;;;5058165;28;20048;-61
2022/03/19 04:09:59;;;;;;;9.40;4.18;;;4.00;99.90;;;;;;5058411;28;20040;-61
2022/03/19 04:12:24;;;;;;;7.75;3.58;;;3.90;99.90;;;;;;5058373;28;20059;-61
2022/03/19 04:14:52;;;;;;;9.57;3.58;;;4.00;99.90;;;;;;5039565;28;20588;-60
2022/03/19 04:17:18;;;;;;;8.15;4.13;;;4.00;99.90;;;;;;5058198;28;20040;-60
2022/03/19 04:19:43;;;;;;;10.52;4.60;;;5.10;99.90;;;;;;5058620;28;20079;-61
2022/03/19 04:22:09;;;;;;;11.85;4.82;;;3.90;99.90;;;;;;5057908;28;20123;-61
2022/03/19 04:24:35;;;;;;;10.18;4.97;;;3.90;99.90;;;;;;5057927;28;20086;-61
2022/03/19 04:27:00;;;;;;;13.27;5.07;;;3.90;99.90;;;;;;5040361;28;20045;-60
2022/03/19 04:29:26;;;;;;;13.77;5.43;;;3.80;99.90;;;;;;5040513;28;20792;-61
2022/03/19 04:31:51;;;;;;;7.65;4.00;;;3.80;99.90;;;;;;5058094;28;20583;-61
2022/03/19 04:34:17;;;;;;;11.38;5.45;;;3.80;99.90;;;;;;5057878;28;20052;-61
2022/03/19 04:36:43;;;;;;;8.35;3.90;;;3.60;99.90;;;;;;5057591;28;20114;-60
2022/03/19 04:39:09;;;;;;;8.32;4.80;;;3.60;99.90;;;;;;5057801;28;20048;-62
2022/03/19 04:41:36;;;;;;;8.73;6.03;;;3.60;99.90;;;;;;5058000;28;20044;-61
2022/03/19 04:44:02;;;;;;;9.38;5.22;;;3.60;99.90;;;;;;5035512;28;20057;-60
2022/03/19 04:46:31;;;;;;;11.07;4.15;;;3.60;99.90;;;;;;5038040;28;20044;-62
2022/03/19 04:48:56;;;;;;;10.38;5.40;;;3.50;99.90;;;;;;5053841;28;20052;-61
2022/03/19 04:51:34;;;;;;;5.18;4.25;;;3.50;99.90;;;;;;5057678;28;20041;-60
2022/03/19 04:54:00;;;;;;;7.68;5.28;;;3.50;99.90;;;;;;5058251;28;20048;-60
2022/03/19 04:56:28;;;;;;;11.50;4.68;;;3.40;99.90;;;;;;5057650;28;20051;-60
2022/03/19 04:58:55;;;;;;;12.98;4.20;;;3.40;99.90;;;;;;5058034;28;20129;-60
2022/03/19 05:01:24;;;;;;;11.95;4.80;;;3.50;99.90;;;;;;5057827;28;20139;-61
2022/03/19 05:03:49;;;;;;;9.55;4.35;;;3.50;99.90;;;;;;5057181;28;20048;-60
2022/03/19 05:06:15;;;;;;;8.77;4.28;;;3.40;99.90;;;;;;5057243;28;20051;-61
2022/03/19 05:08:41;;;;;;;9.00;4.97;;;3.40;99.90;;;;;;5057473;28;20067;-61
2022/03/19 05:11:12;;;;;;;14.80;6.60;;;3.40;99.90;;;;;;5057386;28;20048;-61
2022/03/19 05:13:38;;;;;;;10.63;4.72;;;3.40;99.90;;;;;;5057926;28;20079;-61
2022/03/19 05:16:04;;;;;;;11.38;5.82;;;3.40;99.90;;;;;;5039894;28;20041;-61
2022/03/19 05:18:30;;;;;;;7.82;4.60;;;3.40;99.90;;;;;;5057523;28;20045;-61
2022/03/19 05:20:56;;;;;;;6.90;4.80;;;3.40;99.90;;;;;;5057584;28;20036;-61
2022/03/19 05:23:23;;;;;;;9.60;5.03;;;3.40;99.90;;;;;;5057583;28;20107;-61
2022/03/19 05:25:49;;;;;;;8.02;4.63;;;3.40;99.90;;;;;;5057406;28;20045;-61
2022/03/19 05:28:15;;;;;;;10.80;5.93;;;3.10;99.90;;;;;;5057603;28;20152;-61
2022/03/19 05:30:40;;;;;;;11.68;5.88;;;3.30;99.90;;;;;;5041030;28;20122;-61
2022/03/19 05:33:06;;;;;;;10.65;5.28;;;3.30;99.90;;;;;;5036755;28;20048;-61
2022/03/19 05:35:32;;;;;;;10.75;6.07;;;3.60;99.90;;;;;;5037086;28;20064;-61
2022/03/19 05:37:59;;;;;;;14.73;6.35;;;3.30;99.90;;;;;;5037343;28;20041;-61
2022/03/19 05:40:26;;;;;;;11.63;5.07;;;3.30;99.90;;;;;;5037059;28;20052;-60
2022/03/19 05:42:52;;;;;;;13.00;5.88;;;3.30;99.90;;;;;;5026149;28;20327;-60
2022/03/19 05:45:20;;;;;;;12.68;5.55;;;3.30;99.90;;;;;;5057314;28;20558;-60
2022/03/19 05:47:46;;;;;;;8.70;5.25;;;3.30;99.90;;;;;;5056574;28;20112;-60
2022/03/19 05:50:12;;;;;;;10.93;4.70;;;3.40;99.90;;;;;;5056858;28;20938;-63
2022/03/19 05:52:40;;;;;;;11.30;5.57;;;3.30;99.90;;;;;;5056788;28;20078;-61
2022/03/19 05:55:06;;;;;;;9.13;6.10;;;3.30;99.90;;;;;;5057236;28;20049;-61
2022/03/19 05:57:32;;;;;;;13.95;5.30;;;3.20;99.90;;;;;;5056816;28;20167;-62
2022/03/19 05:59:57;;;;;;;10.52;6.43;;;3.20;99.90;;;;;;5056025;28;20045;-61
2022/03/19 06:02:23;;;;;;;9.88;6.13;;;3.20;99.90;;;;;;5056999;28;20048;-60
2022/03/19 06:04:49;;;;;;;13.50;5.65;;;3.10;99.90;;;;;;5056547;28;20041;-60
2022/03/19 06:07:14;;;;;;;8.43;5.35;;;3.20;99.90;;;;;;5055362;28;20076;-61
2022/03/19 06:09:40;;;;;;;13.52;7.30;;;3.10;99.90;;;;;;5056323;28;20056;-61
2022/03/19 06:12:06;;;;;;;11.73;6.65;;;3.10;99.90;;;;;;5056124;28;20083;-62
2022/03/19 06:14:34;;;;;;;12.65;6.07;;;3.20;99.90;;;;;;5056323;28;20067;-61
2022/03/19 06:17:00;;;;;;;10.02;6.60;;;3.10;99.90;;;;;;5049770;28;20045;-61
2022/03/19 06:19:25;;;;;;;13.45;7.10;;;3.10;99.90;;;;;;5044088;28;20865;-61
2022/03/19 06:21:51;;;;;;;14.75;8.73;;;3.20;99.90;;;;;;5036197;28;20436;-61
2022/03/19 06:24:17;;;;;;;9.18;6.05;;;3.30;99.90;;;;;;5040369;28;20048;-61
2022/03/19 06:26:43;;;;;;;16.00;8.02;;;3.30;99.90;;;;;;5056959;28;20053;-61
2022/03/19 06:29:08;;;;;;;12.82;7.53;;;3.40;99.90;;;;;;5056082;28;20055;-60
2022/03/19 06:31:34;;;;;;;11.82;6.43;;;3.50;99.90;;;;;;5056735;28;20120;-61
2022/03/19 06:34:00;;;;;;;14.95;7.30;;;3.50;99.90;;;;;;5056092;28;20045;-61
2022/03/19 06:39:11;;;;;;;13.23;6.78;;;3.70;99.90;;;;;;5055487;28;20050;-60
2022/03/19 06:41:36;;;;;;;9.70;7.97;;;3.80;99.90;;;;;;5055487;28;20080;-60
2022/03/19 06:44:02;;;;;;;10.57;5.95;;;3.90;99.90;;;;;;5053659;28;20189;-60
2022/03/19 06:46:28;;;;;;;12.48;6.50;;;3.90;99.90;;;;;;5055241;28;20146;-60
2022/03/19 06:48:53;;;;;;;11.82;7.32;;;4.00;99.90;;;;;;5054341;28;20742;-61
2022/03/19 06:51:19;;;;;;;13.30;7.00;;;4.10;99.90;;;;;;5054960;28;20054;-60
2022/03/19 06:53:46;;;;;;;11.00;6.20;;;4.20;99.90;;;;;;5046050;28;20048;-61
2022/03/19 06:56:13;;;;;;;20.73;7.10;;;4.20;99.90;;;;;;5036937;28;20040;-61
2022/03/19 06:58:39;;;;;;;13.32;6.93;;;4.40;99.90;;;;;;5048324;28;20040;-60
2022/03/19 07:01:04;;;;;;;15.35;6.68;;;4.50;99.90;;;;;;5054899;28;20056;-61
2022/03/19 07:03:31;;;;;;;9.90;6.05;;;4.60;99.90;;;;;;5054208;28;20052;-61
2022/03/19 07:05:56;;;;;;;14.27;6.15;;;4.80;99.90;;;;;;5052312;28;20044;-60
2022/03/19 07:08:22;;;;;;;18.13;8.05;;;4.90;99.90;;;;;;5037654;28;20037;-61
2022/03/19 07:10:48;;;;;;;15.23;7.35;;;5.10;99.90;;;;;;5033786;28;20048;-61
2022/03/19 07:13:14;;;;;;;17.30;7.55;;;5.20;99.90;;;;;;5034410;28;20065;-61
2022/03/19 07:15:41;;;;;;;12.88;7.30;;;5.20;99.90;;;;;;5034654;28;20226;-61
2022/03/19 07:18:07;;;;;;;11.00;4.95;;;5.30;99.90;;;;;;5034147;28;20056;-61
2022/03/19 07:20:33;;;;;;;10.23;5.80;;;5.50;99.90;;;;;;5033552;28;20114;-61
2022/03/19 07:23:06;;;;;;;10.00;5.20;;;5.60;99.90;;;;;;5034101;28;20040;-61
2022/03/19 07:25:36;;;;;;;11.27;5.63;;;5.70;99.90;;;;;;5029997;28;20139;-61
2022/03/19 07:28:09;;;;;;;12.38;5.25;;;5.60;99.90;;;;;;5054417;28;20034;-61
2022/03/19 07:30:35;;;;;;;8.80;3.55;;;6.00;99.90;;;;;;5054617;28;20080;-61
2022/03/19 07:33:02;;;;;;;8.32;4.85;;;6.10;99.90;;;;;;5043529;28;20127;-60
2022/03/19 07:35:28;;;;;;;9.68;7.10;;;6.30;99.90;;;;;;4998823;28;1018437;-62
2022/03/19 07:37:54;;;;;;;9.68;4.45;;;6.40;99.90;;;;;;5032998;28;20087;-61
2022/03/19 07:43:07;;;;;;;8.77;4.18;;;6.60;99.90;;;;;;5041598;28;20641;-61
2022/03/19 07:45:34;;;;;;;12.50;5.30;;;6.80;99.90;;;;;;5052124;28;20563;-61
2022/03/19 07:48:00;;;;;;;12.85;5.40;;;6.90;99.90;;;;;;5052729;28;20471;-61
2022/03/19 07:50:26;;;;;;;7.93;4.40;;;7.10;99.90;;;;;;5053009;28;20131;-61
2022/03/19 07:52:52;;;;;;;9.25;4.13;;;7.10;99.90;;;;;;5047969;28;20139;-60
2022/03/19 07:55:18;;;;;;;9.75;5.80;;;7.30;99.90;;;;;;5042120;28;20685;-61
2022/03/19 07:57:44;;;;;;;11.43;5.05;;;8.20;99.90;;;;;;5038157;28;20128;-60
2022/03/19 08:00:12;;;;;;;7.60;4.07;;;9.70;99.90;;;;;;5042650;28;20044;-60
2022/03/19 08:02:38;;;;;;;10.77;5.53;;;11.20;99.90;;;;;;5041751;28;20047;-60
2022/03/19 08:05:04;;;;;;;10.57;4.72;;;12.20;99.90;;;;;;5042822;28;20044;-62
2022/03/19 08:07:31;;;;;;;11.43;4.43;;;13.00;99.90;;;;;;5035959;28;20041;-61
2022/03/19 08:09:59;;;;;;;7.82;4.88;;;13.70;99.90;;;;;;5016256;28;20056;-61
2022/03/19 08:12:27;;;;;;;12.18;5.38;;;14.10;99.60;;;;;;5039282;28;20056;-61
2022/03/19 08:14:53;;;;;;;6.78;3.85;;;14.70;98.10;;;;;;5045804;28;20499;-61
2022/03/19 08:17:19;;;;;;;14.05;4.97;;;14.50;97.60;;;;;;5052565;28;20123;-61
2022/03/19 08:19:45;;;;;;;9.52;5.38;;;14.70;96.50;;;;;;5053228;28;20527;-61
2022/03/19 08:22:11;;;;;;;13.25;5.20;;;14.70;96.50;;;;;;5036891;28;20067;-61
2022/03/19 08:24:37;;;;;;;10.20;4.22;;;15.10;97.40;;;;;;5051617;28;20778;-61
2022/03/19 08:27:03;;;;;;;7.60;3.97;;;15.00;95.70;;;;;;5051591;28;20094;-61
2022/03/19 08:29:29;;;;;;;7.80;4.68;;;15.10;95.10;;;;;;5049552;28;20441;-61
2022/03/19 08:31:55;;;;;;;10.68;4.57;;;15.00;95.40;;;;;;5051701;28;20056;-62
2022/03/19 08:34:22;;;;;;;7.85;4.22;;;14.90;94.70;;;;;;5054460;28;20056;-61
2022/03/19 08:36:48;;;;;;;11.82;4.80;;;15.10;94.90;;;;;;5054976;28;20051;-61
2022/03/19 08:41:58;;;;;;;11.48;5.50;;;14.90;94.30;;;;;;5054391;28;20133;-61
2022/03/19 08:44:25;;;;;;;8.27;4.07;;;15.20;93.70;;;;;;5055559;28;20052;-61
2022/03/19 08:46:53;;;;;;;13.80;4.65;;;15.80;92.80;;;;;;5051504;28;20942;-61
2022/03/19 08:49:20;;;;;;;8.98;4.35;;;15.80;92.00;;;;;;5046900;28;20571;-60
2022/03/19 08:51:46;;;;;;;10.75;4.32;;;15.60;91.00;;;;;;5048953;28;20044;-60
2022/03/19 08:54:17;;;;;;;7.53;3.90;;;16.10;91.60;;;;;;5041173;28;20045;-61
2022/03/19 08:56:47;;;;;;;8.20;4.13;;;16.20;90.80;;;;;;5034537;28;20124;-60
2022/03/19 08:59:13;;;;;;;9.02;4.28;;;16.00;90.00;;;;;;5042883;28;20220;-60
2022/03/19 09:01:40;;;;;;;12.82;4.50;;;16.60;89.20;;;;;;5045545;28;20147;-60
2022/03/19 09:04:07;;;;;;;9.75;4.28;;;16.60;87.80;;;;;;5040149;28;20087;-61
2022/03/19 09:06:33;;;;;;;11.50;4.88;;;16.90;86.70;;;;;;5049272;28;20131;-61
2022/03/19 09:09:03;;;;;;;11.38;4.28;;;16.10;84.10;;;;;;5041364;28;20045;-60
2022/03/19 09:11:29;;;;;;;9.60;3.63;;;16.00;84.70;;;;;;5039260;28;20077;-61
2022/03/19 09:13:54;;;;;;;8.07;4.03;;;16.00;84.90;;;;;;5040955;28;20059;-60
2022/03/19 09:16:20;;;;;;;7.97;3.15;;;15.50;84.80;;;;;;5043320;28;20911;-61
2022/03/19 09:18:47;;;;;;;11.18;3.75;;;15.80;80.40;;;;;;5037864;28;20040;-61
2022/03/19 09:21:13;;;;;;;9.10;3.47;;;15.90;80.90;;;;;;5046401;28;20045;-61
2022/03/19 09:23:38;;;;;;;10.85;3.97;;;16.00;78.90;;;;;;5039751;28;20041;-61
2022/03/19 09:26:04;;;;;;;8.55;3.83;;;15.90;79.30;;;;;;5046478;28;20512;-61
2022/03/19 09:28:30;;;;;;;10.55;5.00;;;16.50;78.70;;;;;;5040002;28;20048;-61
2022/03/19 09:30:55;;;;;;;9.00;4.20;;;16.40;78.20;;;;;;5045563;28;20881;-61
2022/03/19 09:33:21;;;;;;;11.48;4.78;;;16.50;78.90;;;;;;5049243;28;20364;-61
2022/03/19 09:35:50;;;;;;;7.63;2.83;;;16.10;79.60;;;;;;5041447;28;20053;-60
2022/03/19 09:38:17;;;;;;;6.25;2.92;;;16.20;78.60;;;;;;5042636;28;20812;-61
2022/03/19 09:40:43;;;;;;;13.50;3.75;;;16.20;73.50;;;;;;5039160;28;20791;-60
2022/03/19 09:43:09;;;;;;;7.93;3.30;;;16.10;72.70;;;;;;5040777;28;20044;-61
2022/03/19 09:45:38;;;;;;;13.45;4.32;;;16.60;75.50;;;;;;5019123;28;20049;-61
2022/03/19 09:48:04;;;;;;;6.85;3.35;;;16.00;72.70;;;;;;5042745;28;20068;-61
2022/03/19 09:50:30;;;;;;;9.68;4.00;;;16.20;74.30;;;;;;5042723;28;20044;-61
2022/03/19 09:52:57;;;;;;;8.93;4.18;;;16.50;75.60;;;;;;5036759;28;20144;-61
2022/03/19 09:55:26;;;;;;;8.65;4.43;;;16.40;71.40;;;;;;5041836;28;20080;-61
2022/03/19 09:57:53;;;;;;;4.38;3.28;;;16.00;70.30;;;;;;5024580;28;20052;-61
2022/03/19 10:00:22;;;;;;;6.32;2.58;;;16.20;72.10;;;;;;5044059;28;20048;-61
2022/03/19 10:03:07;;;;;;;8.98;3.47;;;16.40;71.60;;;;;;5037195;28;20725;-61
2022/03/19 10:08:37;;;;;;;6.85;3.35;;;16.20;69.80;;;;;;5029147;28;20107;-61
2022/03/19 10:11:15;;;;;;;5.75;3.28;;;16.80;70.60;;;;;;5049157;28;20102;-61
2022/03/19 10:13:44;;;;;;;6.28;3.40;;;16.20;67.10;;;;;;5035202;28;20051;-61
2022/03/19 10:16:10;;;;;;;7.65;3.53;;;16.80;69.70;;;;;;5039123;28;20479;-61
2022/03/19 10:18:36;;;;;;;5.40;3.33;;;16.70;67.70;;;;;;5035610;28;20117;-61
2022/03/19 10:21:13;;;;;;;5.47;2.15;;;16.30;68.00;;;;;;5038255;28;20540;-61
2022/03/19 10:23:39;;;;;;;12.60;3.63;;;16.40;66.00;;;;;;5036364;28;20127;-61
2022/03/19 10:26:06;;;;;;;6.47;2.70;;;16.40;66.50;;;;;;5055135;28;20048;-61
2022/03/19 10:28:35;;;;;;;4.90;2.45;;;16.90;66.20;;;;;;5056409;28;20082;-62
2022/03/19 10:31:02;;;;;;;7.82;3.33;;;17.20;64.60;;;;;;5052679;28;20048;-62
2022/03/19 10:33:33;;;;;;;7.60;2.70;;;16.70;59.10;;;;;;5043741;28;20037;-62
2022/03/19 10:36:07;;;;;;;5.22;2.28;;;16.30;62.00;;;;;;5036633;28;20064;-61
2022/03/19 10:38:44;;;;;;;7.28;3.28;;;16.20;62.20;;;;;;5039246;28;20548;-61
2022/03/19 10:41:12;;;;;;;5.35;2.47;;;16.80;62.60;;;;;;5036564;28;20045;-61
2022/03/19 10:43:38;;;;;;;7.13;3.05;;;16.90;61.00;;;;;;5054325;28;20394;-62
2022/03/19 10:46:04;;;;;;;6.25;3.08;;;16.90;59.50;;;;;;5054891;28;20551;-62
2022/03/19 10:48:30;;;;;;;6.22;3.13;;;16.90;59.60;;;;;;5034838;28;20060;-62
2022/03/19 10:50:57;;;;;;;6.22;3.30;;;16.80;60.90;;;;;;5055884;28;20626;-61
2022/03/19 10:53:24;;;;;;;5.53;2.40;;;16.40;61.40;;;;;;5055913;28;20446;-61
2022/03/19 10:55:50;;;;;;;4.38;2.78;;;15.90;59.60;;;;;;5055551;28;20049;-63
2022/03/19 10:58:16;;;;;;;2.92;2.30;;;14.40;60.80;;;;;;5055946;28;20080;-62
2022/03/19 11:00:43;;;;;;;3.50;2.63;;;13.90;63.00;;;;;;5037369;28;20056;-61
2022/03/19 11:03:17;;;;;;;5.70;2.60;;;13.30;64.10;;;;;;5049075;28;20452;-62
2022/03/19 11:05:44;;;;;;;6.25;3.38;;;12.80;67.10;;;;;;5043039;28;20186;-61
2022/03/19 11:08:12;;;;;;;3.03;2.60;;;12.30;69.80;;;;;;5053609;28;20040;-63
2022/03/19 11:10:38;;;;;;;8.07;2.67;;;12.00;70.60;;;;;;5053527;28;20044;-62
2022/03/19 11:13:09;;;;;;;4.35;2.38;;;12.00;70.10;;;;;;5053785;28;20044;-63
2022/03/19 11:15:36;;;;;;;4.13;2.00;;;12.00;71.50;;;;;;5054103;28;20863;-62
2022/03/19 11:18:07;;;;;;;4.10;1.80;;;12.10;69.70;;;;;;5035165;28;20563;-61
2022/03/19 11:20:33;;;;;;;5.15;2.58;;;12.10;67.90;;;;;;5054599;28;20084;-62
2022/03/19 11:23:01;;;;;;;5.25;2.65;;;12.20;68.40;;;;;;5036680;28;20831;-62
2022/03/19 11:25:26;;;;;;;4.55;2.35;;;12.10;70.10;;;;;;5054336;28;20048;-63
2022/03/19 11:28:05;;;;;;;2.72;2.03;;;12.20;70.10;;;;;;5054592;28;20055;-64
2022/03/19 11:31:07;;;;;;;3.40;2.75;;;12.20;69.90;;;;;;5053877;28;20151;-63
2022/03/19 11:33:37;;;;;;;4.35;2.55;;;12.10;69.00;;;;;;5048483;28;20694;-61
2022/03/19 11:36:07;;;;;;;4.28;2.00;;;12.10;72.00;;;;;;5055149;28;20861;-62
2022/03/19 11:38:40;;;;;;;2.40;1.98;;;12.20;69.50;;;;;;5034720;28;20057;-61
2022/03/19 11:41:26;;;;;;;7.93;3.07;;;12.30;71.70;;;;;;5051018;28;20075;-62
2022/03/19 11:44:26;;;;;;;6.60;2.03;;;12.20;69.30;;;;;;5053738;28;20674;-63
2022/03/19 11:47:06;;;;;;;4.50;1.77;;;12.20;74.80;;;;;;5036501;28;20060;-63
2022/03/19 11:49:48;;;;;;;5.82;2.33;;;12.30;74.20;;;;;;5026687;28;20098;-64
2022/03/19 11:52:37;;;;;;;4.53;2.60;;;12.10;74.80;;;;;;5054040;28;20147;-62
2022/03/19 11:55:06;;;;;;;5.68;2.05;;;12.00;74.90;;;;;;5034936;28;20052;-62
2022/03/19 11:57:58;;;;;;;3.15;1.70;;;12.10;76.00;;;;;;5053929;28;20172;-62
2022/03/19 12:00:29;;;;;;;3.20;1.63;;;12.30;74.30;;;;;;5053681;28;20040;-62
2022/03/19 12:03:06;;;;;;;2.72;1.92;;;12.20;74.00;;;;;;5054300;28;20055;-63
2022/03/19 12:05:37;;;;;;;3.83;1.38;;;12.10;71.30;;;;;;5053415;28;20049;-63
2022/03/19 12:08:13;;;;;;;1.58;1.05;;;12.10;67.30;;;;;;5058049;28;20050;-62
2022/03/19 12:10:58;;;;;;;1.60;1.13;;;12.20;67.30;;;;;;5058449;28;20044;-62
2022/03/19 12:13:26;;;;;;;2.30;1.40;;;12.20;67.60;;;;;;5057585;28;20880;-62
2022/03/19 12:15:53;;;;;;;1.50;1.20;;;12.30;67.70;;;;;;5042701;28;20045;-62
2022/03/19 12:18:41;;;;;;;1.95;1.30;;;12.50;67.90;;;;;;5042924;28;20173;-62
2022/03/19 12:21:10;;;;;;;3.67;1.40;;;12.40;66.40;;;;;;5037779;28;20048;-62
2022/03/19 12:23:40;;;;;;;1.13;1.00;;;12.30;63.80;;;;;;5042853;28;20059;-62
2022/03/19 12:26:12;;;;;;;1.63;1.30;;;12.40;65.10;;;;;;5052544;28;20052;-63
2022/03/19 12:28:37;;;;;;;2.22;1.50;;;12.40;65.90;;;;;;5024313;28;20635;-63
2022/03/19 12:31:12;;;;;;;3.15;1.95;;;12.50;66.00;;;;;;5038417;28;20056;-64
2022/03/19 12:33:38;;;;;;;3.50;1.70;;;12.30;65.00;;;;;;5037998;28;20673;-63
2022/03/19 12:36:31;;;;;;;1.50;1.23;;;12.40;65.00;;;;;;5020122;28;20160;-63
2022/03/19 12:39:04;;;;;;;1.52;1.15;;;12.50;64.90;;;;;;5036223;28;20059;-64
2022/03/19 12:41:31;;;;;;;4.25;1.88;;;12.50;64.10;;;;;;5029647;28;20045;-64
2022/03/19 12:44:05;;;;;;;1.85;1.13;;;12.50;64.80;;;;;;5045630;28;20613;-62
2022/03/19 12:46:36;;;;;;;3.17;1.25;;;12.60;63.60;;;;;;5051851;28;20064;-62
2022/03/19 12:49:07;;;;;;;4.63;1.23;;;12.60;64.00;;;;;;5053307;28;20079;-62
2022/03/19 12:51:36;;;;;;;3.22;1.30;;;12.60;62.80;;;;;;5051687;28;20056;-62
2022/03/19 12:54:19;;;;;;;3.40;1.30;;;12.60;62.70;;;;;;5031896;28;20634;-62
2022/03/19 12:56:46;;;;;;;4.10;1.55;;;12.60;63.90;;;;;;5037833;28;20052;-61
2022/03/19 12:59:22;;;;;;;1.52;1.23;;;12.60;62.90;;;;;;5035289;28;20071;-62
2022/03/19 13:01:48;;;;;;;3.80;1.60;;;12.60;63.90;;;;;;5042716;28;20056;-62
2022/03/19 13:04:25;;;;;;;4.35;2.00;;;12.50;63.30;;;;;;5033996;28;20159;-62
2022/03/19 13:06:52;;;;;;;3.75;1.30;;;12.50;64.90;;;;;;5055094;28;20127;-62